Time;durP1;ratioP1;P1;durP2;ratioP2;P2;SDS_P1;SDS_P2;PMS_P1;PMS_P2;Temp;Humidity;BMP_temperature;BMP_pressure;BME280_temperature;BME280_humidity;BME280_pressure;Samples;Min_cycle;Max_cycle;Signal;HPM_P1;HPM_P2
2023/01/07 00:01:35;;;;;;;11.40;7.57;;;11.70;99.90;;;;;;5052247;28;20021;-81
2023/01/07 00:04:02;;;;;;;12.48;8.32;;;11.70;99.90;;;;;;5053428;28;20021;-81
2023/01/07 00:06:30;;;;;;;15.98;8.55;;;11.60;99.90;;;;;;5052287;28;20079;-81
2023/01/07 00:08:56;;;;;;;13.15;8.55;;;11.60;99.90;;;;;;5052059;28;20539;-81
2023/01/07 00:11:33;;;;;;;13.13;9.23;;;11.60;99.90;;;;;;5053236;28;20099;-80
2023/01/07 00:14:00;;;;;;;11.80;7.90;;;11.60;99.90;;;;;;5053356;28;20032;-81
2023/01/07 00:16:28;;;;;;;14.40;8.30;;;11.60;99.90;;;;;;5035664;28;20122;-81
2023/01/07 00:18:56;;;;;;;11.38;7.72;;;11.50;99.90;;;;;;5051853;28;20091;-81
2023/01/07 00:21:23;;;;;;;13.02;7.60;;;11.50;99.90;;;;;;5052002;28;20022;-81
2023/01/07 00:23:57;;;;;;;12.85;8.52;;;11.50;99.90;;;;;;5052034;28;20017;-81
2023/01/07 00:26:25;;;;;;;12.50;7.00;;;11.50;99.90;;;;;;5053317;28;20376;-81
2023/01/07 00:28:52;;;;;;;11.05;7.55;;;11.40;99.90;;;;;;5051986;28;20389;-81
2023/01/07 00:31:26;;;;;;;11.27;7.40;;;11.40;99.90;;;;;;5051895;28;20124;-80
2023/01/07 00:36:23;;;;;;;12.02;8.00;;;11.30;99.90;;;;;;5053126;28;20029;-81
2023/01/07 00:38:54;;;;;;;11.98;8.05;;;11.30;99.90;;;;;;5035148;28;20075;-81
2023/01/07 00:41:20;;;;;;;13.07;8.57;;;11.30;99.90;;;;;;5053350;28;20082;-81
2023/01/07 00:43:46;;;;;;;12.73;7.73;;;11.20;99.90;;;;;;5051968;28;20029;-81
2023/01/07 00:46:14;;;;;;;14.23;8.97;;;11.20;99.90;;;;;;5053024;28;20392;-81
2023/01/07 00:48:40;;;;;;;9.32;6.65;;;11.20;99.90;;;;;;5035219;28;20067;-80
2023/01/07 00:51:07;;;;;;;13.37;8.93;;;11.20;99.90;;;;;;5053209;28;20049;-74
2023/01/07 00:53:33;;;;;;;13.63;7.73;;;11.20;99.90;;;;;;5054752;28;20365;-75
2023/01/07 00:55:59;;;;;;;13.23;7.20;;;11.20;99.90;;;;;;5056961;28;20025;-74
2023/01/07 00:58:25;;;;;;;12.07;7.33;;;11.20;99.90;;;;;;5056813;28;20051;-75
2023/01/07 01:00:55;;;;;;;11.10;7.50;;;11.20;99.90;;;;;;5057224;28;20123;-75
2023/01/07 01:03:20;;;;;;;12.70;8.27;;;11.20;99.90;;;;;;5055726;28;20051;-80
2023/01/07 01:05:46;;;;;;;10.70;6.60;;;11.20;99.90;;;;;;5056643;28;20171;-81
2023/01/07 01:08:12;;;;;;;11.85;7.45;;;11.20;99.90;;;;;;5056117;28;20036;-82
2023/01/07 01:10:37;;;;;;;13.43;7.97;;;11.20;99.90;;;;;;5055893;28;20530;-81
2023/01/07 01:13:03;;;;;;;14.57;8.67;;;11.20;99.90;;;;;;5055824;28;20036;-81
2023/01/07 01:15:29;;;;;;;12.10;8.43;;;11.20;99.90;;;;;;5056553;28;20025;-81
2023/01/07 01:17:54;;;;;;;12.47;8.10;;;11.20;99.90;;;;;;5055333;28;20049;-80
2023/01/07 01:20:20;;;;;;;12.90;8.47;;;11.20;99.90;;;;;;5038574;28;20033;-80
2023/01/07 01:22:46;;;;;;;13.35;8.07;;;11.20;99.90;;;;;;5056516;28;20021;-81
2023/01/07 01:25:12;;;;;;;14.73;8.35;;;11.20;99.90;;;;;;5056817;28;20032;-81
2023/01/07 01:27:38;;;;;;;13.98;8.00;;;11.20;99.90;;;;;;5054991;28;20354;-81
2023/01/07 01:30:05;;;;;;;13.93;8.30;;;11.30;99.90;;;;;;5056496;28;20028;-81
2023/01/07 01:32:31;;;;;;;13.13;8.00;;;11.30;99.90;;;;;;5054879;28;20021;-80
2023/01/07 01:34:56;;;;;;;13.38;7.75;;;11.30;99.90;;;;;;5055046;28;20362;-80
2023/01/07 01:37:22;;;;;;;13.40;7.35;;;11.30;99.90;;;;;;5054936;28;20562;-80
2023/01/07 01:39:48;;;;;;;10.95;7.72;;;11.30;99.90;;;;;;5054929;28;20032;-80
2023/01/07 01:42:21;;;;;;;11.13;6.72;;;11.20;99.90;;;;;;5054939;28;20029;-75
2023/01/07 01:44:52;;;;;;;11.25;8.15;;;11.30;99.90;;;;;;5056204;28;20022;-74
2023/01/07 01:47:53;;;;;;;13.20;7.60;;;11.30;99.90;;;;;;5056088;28;20031;-74
2023/01/07 01:50:42;;;;;;;10.67;7.13;;;11.30;99.90;;;;;;5046062;28;20477;-74
2023/01/07 01:53:14;;;;;;;14.67;7.60;;;11.30;99.90;;;;;;5056189;28;20031;-74
2023/01/07 01:55:46;;;;;;;12.80;6.93;;;11.30;99.90;;;;;;5055830;28;20025;-74
2023/01/07 01:58:26;;;;;;;9.15;5.68;;;11.30;99.90;;;;;;5054782;28;20025;-73
2023/01/07 02:00:52;;;;;;;12.55;6.32;;;11.30;99.90;;;;;;5055525;28;20025;-74
2023/01/07 02:03:20;;;;;;;11.02;6.38;;;11.30;99.90;;;;;;5054469;28;20043;-74
2023/01/07 02:05:47;;;;;;;10.35;6.22;;;11.30;99.90;;;;;;5055256;28;20434;-74
2023/01/07 02:08:20;;;;;;;10.48;5.18;;;11.40;99.90;;;;;;5054821;28;20484;-75
2023/01/07 02:10:47;;;;;;;9.82;5.60;;;11.30;99.90;;;;;;5056045;28;20028;-74
2023/01/07 02:13:34;;;;;;;10.27;5.50;;;11.30;99.90;;;;;;5054334;28;20037;-74
2023/01/07 02:16:09;;;;;;;10.05;5.63;;;11.30;99.90;;;;;;5055508;28;20036;-74
2023/01/07 02:18:50;;;;;;;11.27;5.70;;;11.30;99.90;;;;;;5055122;28;20523;-74
2023/01/07 02:21:56;;;;;;;9.37;6.03;;;11.30;99.90;;;;;;5055475;28;20026;-74
2023/01/07 02:25:00;;;;;;;8.75;5.35;;;11.30;99.90;;;;;;5033511;28;20088;-74
2023/01/07 02:27:26;;;;;;;14.43;5.82;;;11.30;99.90;;;;;;5054178;28;20461;-74
2023/01/07 02:30:25;;;;;;;10.07;4.90;;;11.30;99.90;;;;;;5055081;28;20106;-74
2023/01/07 02:33:29;;;;;;;11.23;5.07;;;11.30;99.90;;;;;;5053874;28;20071;-74
2023/01/07 02:36:01;;;;;;;9.83;5.37;;;11.30;99.90;;;;;;5033375;28;20052;-74
2023/01/07 02:38:48;;;;;;;9.73;5.28;;;11.30;99.90;;;;;;5053816;28;20420;-74
2023/01/07 02:41:33;;;;;;;9.30;5.72;;;11.30;99.90;;;;;;5054825;28;20045;-75
2023/01/07 02:44:33;;;;;;;11.32;5.00;;;11.20;99.90;;;;;;5053623;28;20025;-74
2023/01/07 02:47:24;;;;;;;12.05;5.63;;;11.20;99.90;;;;;;5054851;28;20021;-74
2023/01/07 02:49:51;;;;;;;9.40;4.70;;;11.20;99.90;;;;;;5053621;28;20024;-75
2023/01/07 02:52:20;;;;;;;9.57;5.27;;;11.20;99.90;;;;;;5054034;28;20067;-74
2023/01/07 02:54:55;;;;;;;9.70;5.63;;;11.20;99.90;;;;;;5053342;28;20029;-75
2023/01/07 02:57:42;;;;;;;8.63;4.80;;;11.10;99.90;;;;;;5054795;28;20551;-74
2023/01/07 03:00:36;;;;;;;14.70;5.78;;;11.20;99.90;;;;;;5054794;28;20038;-74
2023/01/07 03:03:20;;;;;;;11.00;4.80;;;11.10;99.90;;;;;;5054526;28;20017;-74
2023/01/07 03:06:29;;;;;;;9.77;4.97;;;11.20;99.90;;;;;;5054405;28;20473;-74
2023/01/07 03:09:19;;;;;;;8.37;5.07;;;11.10;99.90;;;;;;5055100;28;20104;-74
2023/01/07 03:12:07;;;;;;;12.23;6.03;;;11.10;99.90;;;;;;5054733;28;20025;-75
2023/01/07 03:14:39;;;;;;;9.90;5.70;;;11.10;99.90;;;;;;5053243;28;20021;-74
2023/01/07 03:17:08;;;;;;;13.43;5.40;;;11.10;99.90;;;;;;5051947;28;20029;-74
2023/01/07 03:19:37;;;;;;;10.77;5.40;;;11.10;99.90;;;;;;5054240;28;20488;-74
2023/01/07 03:22:06;;;;;;;7.77;4.73;;;11.00;99.90;;;;;;5053159;28;20052;-75
2023/01/07 03:24:32;;;;;;;9.80;5.10;;;11.00;99.90;;;;;;5054229;28;20040;-74
2023/01/07 03:27:01;;;;;;;9.37;4.53;;;11.00;99.90;;;;;;5053081;28;20118;-74
2023/01/07 03:29:28;;;;;;;8.43;5.23;;;10.90;99.90;;;;;;5053066;28;20021;-74
2023/01/07 03:32:17;;;;;;;8.90;5.07;;;10.90;99.90;;;;;;5052989;28;20025;-75
2023/01/07 03:34:43;;;;;;;10.83;4.90;;;10.90;99.90;;;;;;5054154;28;20033;-74
2023/01/07 03:37:13;;;;;;;10.37;4.57;;;10.90;99.90;;;;;;5052927;28;20036;-74
2023/01/07 03:39:41;;;;;;;9.63;4.83;;;10.90;99.90;;;;;;5052800;28;20028;-74
2023/01/07 03:44:53;;;;;;;10.93;4.23;;;10.90;99.90;;;;;;5053997;28;20028;-73
2023/01/07 03:47:20;;;;;;;10.87;5.00;;;10.90;99.90;;;;;;5053067;28;20492;-74
2023/01/07 03:49:45;;;;;;;7.07;4.63;;;10.90;99.90;;;;;;5053818;28;20025;-75
2023/01/07 03:52:11;;;;;;;10.63;5.17;;;10.80;99.90;;;;;;5036071;28;20374;-75
2023/01/07 03:54:37;;;;;;;9.07;4.90;;;10.80;99.90;;;;;;5053679;28;20025;-74
2023/01/07 03:57:02;;;;;;;6.80;4.27;;;10.80;99.90;;;;;;5051934;28;20036;-74
2023/01/07 03:59:28;;;;;;;8.30;4.43;;;10.80;99.90;;;;;;5052499;28;20033;-74
2023/01/07 04:01:54;;;;;;;7.97;4.70;;;10.80;99.90;;;;;;5053932;28;20056;-74
2023/01/07 04:04:19;;;;;;;7.77;4.40;;;10.70;99.90;;;;;;5035756;28;20123;-75
2023/01/07 04:06:45;;;;;;;7.93;3.93;;;10.70;99.90;;;;;;5052414;28;20396;-75
2023/01/07 04:09:13;;;;;;;8.97;4.47;;;10.70;99.90;;;;;;5053511;28;20238;-74
2023/01/07 04:11:40;;;;;;;7.13;4.27;;;10.70;99.90;;;;;;5053490;28;20032;-74
2023/01/07 04:14:05;;;;;;;7.87;3.97;;;10.60;99.90;;;;;;5052421;28;20023;-74
2023/01/07 04:16:31;;;;;;;8.87;4.60;;;10.60;99.90;;;;;;5053264;28;20037;-74
2023/01/07 04:18:57;;;;;;;9.23;5.13;;;10.60;99.90;;;;;;5053061;28;20400;-74
2023/01/07 04:21:23;;;;;;;7.83;3.93;;;10.60;99.90;;;;;;5052027;28;20112;-74
2023/01/07 04:23:48;;;;;;;6.17;3.43;;;10.60;99.90;;;;;;5053461;28;20025;-75
2023/01/07 04:26:14;;;;;;;7.73;4.03;;;10.60;99.90;;;;;;5053458;28;20052;-74
2023/01/07 04:28:40;;;;;;;7.00;3.70;;;10.50;99.90;;;;;;5051827;28;20025;-73
2023/01/07 04:31:05;;;;;;;8.03;3.90;;;10.50;99.90;;;;;;5052049;28;20109;-75
2023/01/07 04:33:31;;;;;;;9.20;4.20;;;10.50;99.90;;;;;;5051942;28;20033;-74
2023/01/07 04:35:57;;;;;;;8.67;4.77;;;10.50;99.90;;;;;;5053556;28;20025;-75
2023/01/07 04:38:23;;;;;;;8.10;4.40;;;10.50;99.90;;;;;;5035336;28;20096;-75
2023/01/07 04:40:48;;;;;;;11.43;4.70;;;10.50;99.90;;;;;;5052052;28;20439;-74
2023/01/07 04:43:14;;;;;;;5.90;3.53;;;10.50;99.90;;;;;;5051963;28;20021;-75
2023/01/07 04:45:39;;;;;;;7.47;4.33;;;10.40;99.90;;;;;;5035488;28;20041;-74
2023/01/07 04:48:05;;;;;;;8.03;3.83;;;10.50;99.90;;;;;;5051729;28;20045;-74
2023/01/07 04:50:31;;;;;;;12.67;4.43;;;10.50;99.90;;;;;;5052101;28;20029;-74
2023/01/07 04:52:57;;;;;;;7.37;3.50;;;10.40;99.90;;;;;;5051898;28;20029;-73
2023/01/07 04:55:22;;;;;;;6.23;3.37;;;10.50;99.90;;;;;;5051826;28;20029;-74
2023/01/07 04:57:48;;;;;;;6.60;3.60;;;10.50;99.90;;;;;;5051669;28;20476;-74
2023/01/07 05:00:14;;;;;;;7.37;4.33;;;10.50;99.90;;;;;;5053288;28;20392;-74
2023/01/07 05:02:39;;;;;;;8.80;3.73;;;10.50;99.90;;;;;;5051775;28;20044;-74
2023/01/07 05:05:05;;;;;;;6.67;3.57;;;10.50;99.90;;;;;;5051592;28;20036;-74
2023/01/07 05:07:31;;;;;;;7.43;3.80;;;10.50;99.90;;;;;;5035189;28;20120;-74
2023/01/07 05:09:57;;;;;;;6.63;3.53;;;10.50;99.90;;;;;;5035138;28;20025;-74
2023/01/07 05:12:22;;;;;;;8.20;3.73;;;10.50;99.90;;;;;;5051849;28;20029;-74
2023/01/07 05:14:48;;;;;;;5.17;2.97;;;10.50;99.90;;;;;;5051778;28;20025;-75
2023/01/07 05:17:13;;;;;;;8.60;3.77;;;10.50;99.90;;;;;;5051252;28;20072;-75
2023/01/07 05:19:39;;;;;;;7.03;3.50;;;10.50;99.90;;;;;;5051650;28;20021;-74
2023/01/07 05:22:05;;;;;;;6.50;3.23;;;10.60;99.90;;;;;;5051937;28;20385;-74
2023/01/07 05:24:30;;;;;;;6.03;2.87;;;10.60;99.90;;;;;;5056800;28;20031;-74
2023/01/07 05:26:56;;;;;;;7.90;3.17;;;10.50;99.90;;;;;;5054881;28;20026;-81
2023/01/07 05:29:21;;;;;;;5.23;2.87;;;10.60;99.90;;;;;;5071946;28;20025;-81
2023/01/07 05:31:47;;;;;;;8.07;3.20;;;10.60;99.90;;;;;;5059247;28;20040;-81
2023/01/07 05:34:13;;;;;;;5.27;2.60;;;10.60;99.90;;;;;;5052733;28;20485;-80
2023/01/07 05:36:38;;;;;;;8.87;3.67;;;10.60;99.90;;;;;;5051161;28;20390;-81
2023/01/07 05:39:04;;;;;;;6.23;3.10;;;10.60;99.90;;;;;;5051846;28;20021;-81
2023/01/07 05:41:29;;;;;;;4.87;2.87;;;10.70;99.90;;;;;;5056157;28;20025;-81
2023/01/07 05:43:55;;;;;;;7.03;2.90;;;10.60;99.90;;;;;;5038089;28;20445;-81
2023/01/07 05:46:20;;;;;;;5.83;2.90;;;10.60;99.90;;;;;;5038502;28;20029;-80
2023/01/07 05:48:46;;;;;;;7.77;2.93;;;10.70;99.90;;;;;;5056422;28;20447;-80
2023/01/07 05:51:12;;;;;;;6.93;2.77;;;10.70;99.90;;;;;;5056157;28;20029;-81
2023/01/07 05:53:37;;;;;;;7.30;3.27;;;10.70;99.90;;;;;;5054661;28;20473;-81
2023/01/07 05:56:03;;;;;;;6.53;2.67;;;10.70;99.90;;;;;;5037705;28;20037;-80
2023/01/07 05:58:29;;;;;;;7.97;3.20;;;10.70;99.90;;;;;;5055840;28;20502;-80
2023/01/07 06:00:55;;;;;;;6.63;3.13;;;10.80;99.90;;;;;;5054705;28;20075;-81
2023/01/07 06:03:21;;;;;;;7.67;3.20;;;10.70;99.90;;;;;;5054461;28;20061;-80
2023/01/07 06:05:47;;;;;;;7.43;2.90;;;10.70;99.90;;;;;;5055685;28;20036;-81
2023/01/07 06:08:13;;;;;;;5.07;2.67;;;10.80;99.90;;;;;;5054541;28;20108;-80
2023/01/07 06:10:39;;;;;;;6.87;3.63;;;10.80;99.90;;;;;;5055547;28;20052;-80
2023/01/07 06:13:05;;;;;;;5.93;2.67;;;10.80;99.90;;;;;;5055671;28;20035;-81
2023/01/07 06:15:30;;;;;;;8.17;2.30;;;10.80;99.90;;;;;;5055382;28;20029;-81
2023/01/07 06:17:56;;;;;;;7.20;2.60;;;10.80;99.90;;;;;;5054247;28;20040;-80
2023/01/07 06:20:23;;;;;;;5.43;2.77;;;10.80;99.90;;;;;;5054097;28;20167;-81
2023/01/07 06:22:48;;;;;;;11.03;2.57;;;10.80;99.90;;;;;;5054294;28;20579;-80
2023/01/07 06:25:15;;;;;;;4.97;2.17;;;10.80;99.90;;;;;;5055787;28;20030;-80
2023/01/07 06:27:41;;;;;;;7.00;2.53;;;10.90;99.90;;;;;;5055145;28;20029;-80
2023/01/07 06:30:08;;;;;;;6.33;2.40;;;10.90;99.90;;;;;;5053871;28;20021;-81
2023/01/07 06:32:42;;;;;;;5.47;2.43;;;10.90;99.90;;;;;;5055110;28;20029;-80
2023/01/07 06:35:09;;;;;;;4.78;1.90;;;10.90;99.90;;;;;;5055128;28;20025;-80
2023/01/07 06:37:35;;;;;;;5.05;1.52;;;10.90;99.90;;;;;;5055299;28;20370;-81
2023/01/07 06:40:01;;;;;;;6.20;2.13;;;10.90;99.90;;;;;;5053957;28;20116;-80
2023/01/07 06:42:27;;;;;;;6.13;2.00;;;10.90;99.90;;;;;;5053737;28;20033;-80
2023/01/07 06:44:53;;;;;;;5.43;2.10;;;10.90;99.90;;;;;;5053666;28;20029;-80
2023/01/07 06:47:18;;;;;;;4.47;1.65;;;10.90;99.90;;;;;;5053654;28;20381;-80
2023/01/07 06:49:44;;;;;;;4.07;1.60;;;10.90;99.90;;;;;;5053673;28;20021;-80
2023/01/07 06:52:10;;;;;;;3.27;1.37;;;11.00;99.90;;;;;;5054673;28;20036;-80
2023/01/07 06:54:35;;;;;;;3.08;1.50;;;11.00;99.90;;;;;;5053433;28;20025;-80
2023/01/07 06:57:01;;;;;;;4.90;1.43;;;11.00;99.90;;;;;;5054672;28;20036;-81
2023/01/07 06:59:26;;;;;;;2.97;1.60;;;11.00;99.90;;;;;;5053690;28;20079;-80
2023/01/07 07:01:52;;;;;;;5.70;1.77;;;11.00;99.90;;;;;;5037014;28;20552;-80
2023/01/07 07:04:18;;;;;;;3.80;1.20;;;11.00;99.90;;;;;;5054596;28;20482;-81
2023/01/07 07:06:43;;;;;;;4.03;1.37;;;11.00;99.90;;;;;;5054892;28;20056;-81
2023/01/07 07:09:09;;;;;;;5.20;1.50;;;11.10;99.90;;;;;;5053105;28;20116;-80
2023/01/07 07:11:35;;;;;;;4.55;1.30;;;11.00;99.90;;;;;;5054437;28;20029;-80
2023/01/07 07:14:00;;;;;;;4.35;1.30;;;11.00;99.90;;;;;;5053549;28;20516;-80
2023/01/07 07:16:26;;;;;;;4.20;1.43;;;11.10;99.90;;;;;;5052900;28;20067;-80
2023/01/07 07:18:52;;;;;;;6.55;1.52;;;11.10;99.90;;;;;;5052828;28;20169;-80
2023/01/07 07:21:18;;;;;;;2.63;1.20;;;11.10;99.90;;;;;;5054072;28;20029;-80
2023/01/07 07:23:44;;;;;;;2.42;1.08;;;11.10;99.90;;;;;;5052926;28;20028;-81
2023/01/07 07:26:10;;;;;;;6.45;1.30;;;11.10;99.90;;;;;;5052946;28;20029;-81
2023/01/07 07:28:36;;;;;;;3.70;1.20;;;11.10;99.90;;;;;;5053110;28;20047;-83
2023/01/07 07:31:02;;;;;;;2.65;1.05;;;11.10;99.90;;;;;;5036029;28;20490;-82
2023/01/07 07:33:28;;;;;;;3.03;1.10;;;11.10;99.90;;;;;;5052644;28;20033;-82
2023/01/07 07:35:57;;;;;;;4.20;1.40;;;11.10;99.90;;;;;;5035852;28;20037;-77
2023/01/07 07:38:22;;;;;;;4.87;1.40;;;11.10;99.90;;;;;;5052756;28;20481;-77
2023/01/07 07:40:48;;;;;;;3.78;1.52;;;11.10;99.90;;;;;;5052922;28;20036;-78
2023/01/07 07:43:14;;;;;;;4.47;1.10;;;11.10;99.90;;;;;;5036365;28;20048;-79
2023/01/07 07:45:41;;;;;;;5.57;1.43;;;11.10;99.90;;;;;;5053762;28;20503;-78
2023/01/07 07:48:08;;;;;;;2.77;1.00;;;11.10;99.90;;;;;;5052582;28;20048;-78
2023/01/07 07:50:34;;;;;;;4.60;1.27;;;11.10;99.90;;;;;;5053753;28;20025;-78
2023/01/07 07:53:00;;;;;;;6.45;1.20;;;11.10;99.90;;;;;;5052378;28;20025;-78
2023/01/07 07:55:32;;;;;;;2.80;1.17;;;11.10;99.90;;;;;;5054070;28;20031;-78
2023/01/07 07:57:57;;;;;;;4.73;0.90;;;11.10;99.90;;;;;;5052584;28;20087;-78
2023/01/07 08:00:23;;;;;;;3.15;1.00;;;11.10;99.90;;;;;;5035796;28;20362;-78
2023/01/07 08:02:49;;;;;;;5.57;1.25;;;11.10;99.90;;;;;;5053515;28;20028;-78
2023/01/07 08:05:15;;;;;;;1.63;0.80;;;11.10;99.90;;;;;;5053449;28;20039;-78
2023/01/07 08:07:41;;;;;;;3.05;1.13;;;11.10;99.90;;;;;;5052170;28;20025;-79
2023/01/07 08:10:07;;;;;;;4.23;0.90;;;11.20;99.90;;;;;;5035462;28;20037;-78
2023/01/07 08:12:37;;;;;;;2.80;0.90;;;11.20;99.90;;;;;;5035596;28;20029;-79
2023/01/07 08:15:04;;;;;;;2.50;0.90;;;11.20;99.90;;;;;;5053532;28;20029;-78
2023/01/07 08:17:29;;;;;;;3.08;1.20;;;11.20;99.90;;;;;;5051723;28;20132;-78
2023/01/07 08:19:55;;;;;;;3.30;1.05;;;11.20;99.90;;;;;;5052077;28;20036;-79
2023/01/07 08:22:21;;;;;;;3.35;1.10;;;11.20;99.90;;;;;;5035218;28;20370;-74
2023/01/07 08:24:50;;;;;;;4.07;1.00;;;11.20;99.70;;;;;;5052225;28;20041;-73
2023/01/07 08:27:15;;;;;;;3.08;1.20;;;11.20;99.50;;;;;;5052118;28;20888;-73
2023/01/07 08:29:41;;;;;;;2.77;0.90;;;11.20;99.40;;;;;;5052520;28;20130;-73
2023/01/07 08:32:07;;;;;;;1.70;0.80;;;11.20;99.40;;;;;;5053112;28;20059;-74
2023/01/07 08:34:32;;;;;;;2.53;1.00;;;11.30;99.50;;;;;;5035604;28;20079;-74
2023/01/07 08:36:58;;;;;;;3.75;1.27;;;11.20;99.10;;;;;;5053158;28;20136;-74
2023/01/07 08:39:24;;;;;;;8.57;0.98;;;11.20;99.20;;;;;;5052796;28;20024;-73
2023/01/07 08:41:49;;;;;;;3.73;1.10;;;11.30;99.20;;;;;;5058608;28;20592;-74
2023/01/07 08:44:15;;;;;;;4.55;1.00;;;11.30;99.10;;;;;;5032183;28;20101;-74
2023/01/07 08:46:41;;;;;;;3.40;1.08;;;11.30;98.90;;;;;;5033209;28;20029;-73
2023/01/07 08:49:09;;;;;;;7.07;1.33;;;11.30;98.70;;;;;;5055001;28;20071;-73
2023/01/07 08:51:34;;;;;;;2.78;1.10;;;11.30;98.70;;;;;;5052599;28;20029;-73
2023/01/07 08:54:00;;;;;;;3.30;1.27;;;11.30;98.40;;;;;;5053125;28;20441;-74
2023/01/07 08:56:25;;;;;;;2.05;0.90;;;11.30;98.50;;;;;;5034974;28;20025;-74
2023/01/07 08:58:51;;;;;;;2.35;0.82;;;11.40;98.50;;;;;;5081920;28;20029;-73
2023/01/07 09:01:17;;;;;;;2.17;0.90;;;11.40;98.10;;;;;;5051930;28;20036;-74
2023/01/07 09:03:42;;;;;;;3.43;1.07;;;11.40;98.20;;;;;;5052671;28;20386;-75
2023/01/07 09:06:08;;;;;;;2.70;1.10;;;11.40;98.20;;;;;;5068349;28;20101;-75
2023/01/07 09:08:34;;;;;;;2.13;0.82;;;11.50;97.90;;;;;;5051881;28;20864;-74
2023/01/07 09:10:59;;;;;;;2.03;0.90;;;11.50;97.80;;;;;;5051783;28;20563;-74
2023/01/07 09:13:25;;;;;;;2.60;1.08;;;11.50;97.60;;;;;;5051090;28;20129;-74
2023/01/07 09:15:51;;;;;;;5.53;0.70;;;11.50;97.50;;;;;;5056160;28;20029;-74
2023/01/07 09:18:18;;;;;;;2.08;0.85;;;11.60;97.30;;;;;;5055466;28;20485;-74
2023/01/07 09:20:44;;;;;;;2.78;0.80;;;11.60;96.90;;;;;;5056252;28;20043;-73
2023/01/07 09:23:09;;;;;;;1.98;0.82;;;11.60;97.00;;;;;;5072042;28;20124;-73
2023/01/07 09:25:35;;;;;;;3.40;0.80;;;11.60;96.60;;;;;;5082603;28;20063;-74
2023/01/07 09:28:01;;;;;;;1.83;0.80;;;11.60;96.30;;;;;;5055899;28;20025;-74
2023/01/07 09:30:27;;;;;;;2.53;0.93;;;11.60;96.50;;;;;;5054147;28;20504;-74
2023/01/07 09:32:52;;;;;;;3.17;0.75;;;11.60;96.40;;;;;;5054299;28;20021;-73
2023/01/07 09:35:18;;;;;;;2.22;0.90;;;11.70;96.40;;;;;;5055476;28;20036;-74
2023/01/07 09:37:44;;;;;;;1.98;0.70;;;11.60;96.00;;;;;;5071449;28;20021;-74
2023/01/07 09:40:22;;;;;;;1.85;0.90;;;11.60;95.80;;;;;;5056158;28;20032;-74
2023/01/07 09:43:09;;;;;;;7.85;0.75;;;11.70;95.80;;;;;;5056282;28;20029;-73
2023/01/07 09:45:53;;;;;;;2.55;0.80;;;11.70;95.60;;;;;;5056082;28;20082;-74
2023/01/07 09:48:22;;;;;;;1.65;0.73;;;11.70;95.60;;;;;;5052528;28;20354;-74
2023/01/07 09:51:09;;;;;;;2.17;0.90;;;11.70;95.50;;;;;;5053829;28;20029;-74
2023/01/07 09:53:39;;;;;;;1.90;1.02;;;11.70;95.30;;;;;;5051738;28;20103;-74
2023/01/07 09:56:13;;;;;;;2.90;0.95;;;11.80;95.10;;;;;;5055463;28;20017;-74
2023/01/07 09:58:43;;;;;;;1.60;0.68;;;11.80;94.90;;;;;;5053633;28;20020;-74
2023/01/07 10:01:15;;;;;;;1.85;0.77;;;11.90;95.00;;;;;;5055484;28;20540;-74
2023/01/07 10:03:46;;;;;;;3.58;0.90;;;11.80;94.90;;;;;;5054497;28;20033;-74
2023/01/07 10:06:17;;;;;;;5.22;0.77;;;11.90;94.50;;;;;;5088202;28;20024;-74
2023/01/07 10:08:54;;;;;;;2.05;0.70;;;11.90;94.40;;;;;;5055618;28;20055;-74
2023/01/07 10:11:51;;;;;;;2.25;0.75;;;11.90;94.30;;;;;;5055797;28;20039;-74
2023/01/07 10:14:54;;;;;;;2.28;1.10;;;12.00;93.80;;;;;;5054185;28;20074;-74
2023/01/07 10:17:32;;;;;;;1.98;0.82;;;12.00;93.60;;;;;;5079002;28;20043;-74
2023/01/07 10:20:33;;;;;;;2.45;0.93;;;12.00;93.60;;;;;;5055098;28;20473;-75
2023/01/07 10:23:11;;;;;;;3.10;0.85;;;12.00;93.60;;;;;;5054525;28;20414;-75
2023/01/07 10:25:46;;;;;;;2.33;0.82;;;12.10;93.20;;;;;;5055323;28;20370;-75
2023/01/07 10:28:32;;;;;;;2.83;1.00;;;12.10;93.20;;;;;;5053260;28;20033;-75
2023/01/07 10:31:00;;;;;;;2.42;0.73;;;12.10;93.00;;;;;;5052901;28;20650;-74
2023/01/07 10:33:30;;;;;;;2.45;0.80;;;12.10;92.90;;;;;;5087715;28;20021;-74
2023/01/07 10:36:09;;;;;;;2.33;0.80;;;12.10;92.50;;;;;;5055246;28;20461;-75
2023/01/07 10:38:39;;;;;;;2.25;0.80;;;12.10;92.30;;;;;;5055236;28;20082;-74
2023/01/07 10:41:19;;;;;;;2.60;0.73;;;12.20;92.50;;;;;;5055217;28;20025;-79
2023/01/07 10:44:22;;;;;;;2.85;0.73;;;12.30;92.30;;;;;;5052428;28;20111;-79
2023/01/07 10:47:01;;;;;;;2.22;0.80;;;12.50;92.40;;;;;;5051453;28;20025;-80
2023/01/07 10:49:39;;;;;;;1.92;0.68;;;12.80;92.50;;;;;;5052931;28;20035;-80
2023/01/07 10:52:29;;;;;;;4.05;0.65;;;13.10;91.80;;;;;;5052507;28;20044;-80
2023/01/07 10:55:02;;;;;;;1.58;0.60;;;13.50;91.30;;;;;;5051808;28;20033;-80
2023/01/07 10:57:30;;;;;;;2.78;0.60;;;13.80;90.70;;;;;;5051952;28;20083;-75
2023/01/07 11:00:01;;;;;;;1.23;0.47;;;14.10;90.60;;;;;;5051850;28;20025;-75
2023/01/07 11:02:27;;;;;;;5.30;0.70;;;14.40;90.30;;;;;;5078719;28;20026;-75
2023/01/07 11:04:54;;;;;;;1.70;0.50;;;14.80;88.00;;;;;;5035152;28;20027;-75
2023/01/07 11:07:42;;;;;;;1.30;0.50;;;15.00;85.60;;;;;;5033709;28;20029;-74
2023/01/07 11:10:31;;;;;;;1.90;0.55;;;15.40;84.00;;;;;;5067075;28;20113;-75
2023/01/07 11:13:06;;;;;;;1.52;0.40;;;15.80;82.70;;;;;;5045951;28;20029;-74
2023/01/07 11:15:51;;;;;;;1.23;0.40;;;16.10;81.40;;;;;;5086451;28;20552;-75
2023/01/07 11:18:46;;;;;;;1.50;0.45;;;16.40;79.90;;;;;;5087013;28;20067;-74
2023/01/07 11:21:11;;;;;;;1.50;0.50;;;16.60;77.90;;;;;;5052011;28;20094;-74
2023/01/07 11:23:39;;;;;;;2.03;0.60;;;16.70;76.60;;;;;;5054410;28;20037;-76
2023/01/07 11:26:04;;;;;;;3.03;0.60;;;16.70;72.90;;;;;;5053663;28;20079;-73
2023/01/07 11:28:32;;;;;;;1.23;0.40;;;16.60;71.90;;;;;;5052381;28;20418;-74
2023/01/07 11:30:59;;;;;;;2.92;0.50;;;16.60;71.10;;;;;;5079564;28;20044;-73
2023/01/07 11:33:36;;;;;;;1.92;0.43;;;16.50;71.20;;;;;;5051591;28;20033;-73
2023/01/07 11:36:01;;;;;;;0.98;0.40;;;16.40;69.70;;;;;;5053633;28;20033;-74
2023/01/07 11:38:34;;;;;;;1.17;0.50;;;16.30;69.40;;;;;;5084558;28;20051;-73
2023/01/07 11:41:01;;;;;;;1.27;0.57;;;16.30;68.70;;;;;;5051818;28;20032;-76
2023/01/07 11:43:38;;;;;;;1.00;0.43;;;16.20;66.90;;;;;;5050807;28;20040;-73
2023/01/07 11:46:11;;;;;;;1.10;0.45;;;16.00;68.30;;;;;;5053922;28;20016;-74
2023/01/07 11:49:01;;;;;;;2.17;0.68;;;15.90;68.20;;;;;;5051893;28;20021;-73
2023/01/07 11:51:40;;;;;;;2.13;0.50;;;15.90;68.50;;;;;;5053709;28;20025;-73
2023/01/07 11:54:20;;;;;;;1.55;0.40;;;15.80;69.00;;;;;;5052467;28;20104;-73
2023/01/07 11:56:46;;;;;;;2.92;0.75;;;15.80;69.20;;;;;;5053610;28;20087;-73
2023/01/07 11:59:14;;;;;;;1.33;0.43;;;15.70;68.80;;;;;;5069224;28;20037;-74
2023/01/07 12:01:58;;;;;;;2.20;0.70;;;15.70;68.60;;;;;;5052147;28;20421;-75
2023/01/07 12:04:33;;;;;;;3.33;0.65;;;15.60;68.10;;;;;;5053759;28;20025;-74
2023/01/07 12:07:05;;;;;;;1.33;0.40;;;15.50;68.80;;;;;;5085768;28;20111;-78
2023/01/07 12:09:31;;;;;;;1.00;0.40;;;15.70;69.70;;;;;;5081789;28;20028;-78
2023/01/07 12:12:06;;;;;;;3.38;0.50;;;15.90;69.30;;;;;;5052093;28;20021;-79
2023/01/07 12:14:37;;;;;;;0.93;0.38;;;16.10;68.70;;;;;;5053703;28;20066;-77
2023/01/07 12:17:19;;;;;;;1.15;0.50;;;16.40;67.80;;;;;;5085522;28;20385;-78
2023/01/07 12:20:09;;;;;;;2.92;0.70;;;16.70;67.60;;;;;;5081507;28;20366;-78
2023/01/07 12:23:01;;;;;;;2.72;0.70;;;16.90;65.40;;;;;;5047320;28;20078;-78
2023/01/07 12:25:35;;;;;;;1.20;0.50;;;17.10;64.70;;;;;;5050316;28;20017;-77
2023/01/07 12:28:28;;;;;;;2.05;0.70;;;17.10;64.30;;;;;;5071452;28;20013;-78
2023/01/07 12:31:12;;;;;;;1.80;0.70;;;17.40;64.10;;;;;;5051272;28;20376;-78
2023/01/07 12:33:41;;;;;;;1.42;0.60;;;17.50;63.40;;;;;;5048679;28;20127;-78
2023/01/07 12:36:25;;;;;;;1.35;0.45;;;17.80;63.80;;;;;;5052810;28;20546;-77
2023/01/07 12:38:56;;;;;;;1.17;0.50;;;18.20;63.50;;;;;;5061139;28;20354;-78
2023/01/07 12:41:27;;;;;;;1.65;0.68;;;18.50;61.80;;;;;;5071622;28;20413;-79
2023/01/07 12:44:06;;;;;;;3.28;0.80;;;18.60;60.70;;;;;;5071852;28;20020;-78
2023/01/07 12:47:01;;;;;;;1.60;0.60;;;18.70;60.40;;;;;;5073208;28;20056;-77
2023/01/07 12:49:56;;;;;;;1.92;0.68;;;18.70;59.60;;;;;;5074520;28;20028;-78
2023/01/07 12:52:45;;;;;;;2.90;0.65;;;18.50;58.40;;;;;;5048781;28;20025;-79
2023/01/07 12:55:32;;;;;;;1.35;0.50;;;18.40;58.80;;;;;;5044085;28;20493;-84
2023/01/07 12:58:01;;;;;;;2.72;0.75;;;18.30;59.10;;;;;;5052890;28;20437;-87
2023/01/07 13:00:34;;;;;;;3.03;0.73;;;18.40;59.20;;;;;;5057268;28;20020;-85
2023/01/07 13:03:05;;;;;;;2.08;0.60;;;18.50;58.80;;;;;;5055733;28;20074;-85
2023/01/07 13:05:42;;;;;;;2.03;0.90;;;18.50;58.30;;;;;;5053540;28;20025;-85
2023/01/07 13:08:33;;;;;;;7.78;0.70;;;18.30;57.80;;;;;;5056061;28;20036;-85
2023/01/07 13:11:08;;;;;;;2.60;0.73;;;18.30;58.10;;;;;;5055707;28;20062;-84